sensor_id;sensor_type;location;lat;lon;timestamp;P1;durP1;ratioP1;P2;durP2;ratioP2
17091;SDS011;8661;45.700;4.880;2023-05-16T02:17:52;14.10;;;9.63;;
17091;SDS011;8661;45.700;4.880;2023-05-16T02:20:19;14.33;;;9.87;;
17091;SDS011;8661;45.700;4.880;2023-05-16T02:22:46;13.40;;;9.53;;
17091;SDS011;8661;45.700;4.880;2023-05-16T02:25:14;15.93;;;9.90;;
17091;SDS011;8661;45.700;4.880;2023-05-16T02:27:41;12.87;;;9.73;;
17091;SDS011;8661;45.700;4.880;2023-05-16T02:30:08;15.30;;;9.37;;
17091;SDS011;8661;45.700;4.880;2023-05-16T02:32:36;16.93;;;10.07;;
17091;SDS011;8661;45.700;4.880;2023-05-16T02:35:05;13.83;;;9.63;;
17091;SDS011;8661;45.700;4.880;2023-05-16T02:37:33;14.13;;;9.93;;
17091;SDS011;8661;45.700;4.880;2023-05-16T02:40:00;15.63;;;9.13;;
17091;SDS011;8661;45.700;4.880;2023-05-16T02:42:27;14.70;;;9.93;;
17091;SDS011;8661;45.700;4.880;2023-05-16T02:44:55;14.13;;;9.70;;
17091;SDS011;8661;45.700;4.880;2023-05-16T02:47:22;13.23;;;9.27;;
17091;SDS011;8661;45.700;4.880;2023-05-16T02:49:50;16.03;;;10.43;;
17091;SDS011;8661;45.700;4.880;2023-05-16T02:52:18;14.67;;;10.07;;
17091;SDS011;8661;45.700;4.880;2023-05-16T02:54:45;14.27;;;9.67;;
17091;SDS011;8661;45.700;4.880;2023-05-16T02:57:12;15.87;;;10.43;;
17091;SDS011;8661;45.700;4.880;2023-05-16T02:59:39;14.43;;;9.27;;
17091;SDS011;8661;45.700;4.880;2023-05-16T03:02:06;14.43;;;10.23;;
17091;SDS011;8661;45.700;4.880;2023-05-16T03:04:33;12.37;;;9.43;;
17091;SDS011;8661;45.700;4.880;2023-05-16T03:07:01;15.70;;;9.87;;
17091;SDS011;8661;45.700;4.880;2023-05-16T03:09:29;14.67;;;9.57;;
17091;SDS011;8661;45.700;4.880;2023-05-16T03:11:56;12.40;;;9.30;;
17091;SDS011;8661;45.700;4.880;2023-05-16T03:14:23;14.83;;;10.13;;
17091;SDS011;8661;45.700;4.880;2023-05-16T03:16:50;15.90;;;10.53;;
17091;SDS011;8661;45.700;4.880;2023-05-16T03:19:17;15.80;;;10.90;;
17091;SDS011;8661;45.700;4.880;2023-05-16T03:21:44;13.97;;;9.80;;
17091;SDS011;8661;45.700;4.880;2023-05-16T03:24:11;14.87;;;9.73;;
17091;SDS011;8661;45.700;4.880;2023-05-16T03:26:39;16.53;;;10.53;;
17091;SDS011;8661;45.700;4.880;2023-05-16T03:29:06;16.53;;;10.60;;
17091;SDS011;8661;45.700;4.880;2023-05-16T03:31:33;16.70;;;10.53;;
17091;SDS011;8661;45.700;4.880;2023-05-16T03:34:01;15.57;;;10.17;;
17091;SDS011;8661;45.700;4.880;2023-05-16T03:36:28;16.53;;;9.70;;
17091;SDS011;8661;45.700;4.880;2023-05-16T03:38:55;14.63;;;9.47;;
17091;SDS011;8661;45.700;4.880;2023-05-16T03:41:22;17.27;;;10.97;;
17091;SDS011;8661;45.700;4.880;2023-05-16T03:43:51;14.57;;;9.13;;
17091;SDS011;8661;45.700;4.880;2023-05-16T03:46:18;14.60;;;9.47;;
17091;SDS011;8661;45.700;4.880;2023-05-16T03:48:45;15.00;;;9.67;;
17091;SDS011;8661;45.700;4.880;2023-05-16T03:51:12;14.30;;;9.37;;
17091;SDS011;8661;45.700;4.880;2023-05-16T03:53:39;13.23;;;9.30;;
17091;SDS011;8661;45.700;4.880;2023-05-16T03:56:06;15.27;;;9.53;;
17091;SDS011;8661;45.700;4.880;2023-05-16T03:58:36;16.20;;;9.40;;
17091;SDS011;8661;45.700;4.880;2023-05-16T04:01:04;17.30;;;9.70;;
17091;SDS011;8661;45.700;4.880;2023-05-16T04:03:31;14.47;;;9.80;;
17091;SDS011;8661;45.700;4.880;2023-05-16T04:05:58;13.63;;;9.73;;
17091;SDS011;8661;45.700;4.880;2023-05-16T04:08:25;13.03;;;9.57;;
17091;SDS011;8661;45.700;4.880;2023-05-16T04:10:52;16.03;;;10.60;;
17091;SDS011;8661;45.700;4.880;2023-05-16T04:13:19;17.73;;;10.57;;
17091;SDS011;8661;45.700;4.880;2023-05-16T04:15:46;15.80;;;9.70;;
17091;SDS011;8661;45.700;4.880;2023-05-16T04:18:14;15.97;;;10.50;;
17091;SDS011;8661;45.700;4.880;2023-05-16T04:20:41;14.97;;;9.80;;
17091;SDS011;8661;45.700;4.880;2023-05-16T04:23:08;18.70;;;10.73;;
17091;SDS011;8661;45.700;4.880;2023-05-16T04:25:37;15.63;;;10.40;;
17091;SDS011;8661;45.700;4.880;2023-05-16T04:28:04;16.30;;;9.23;;
17091;SDS011;8661;45.700;4.880;2023-05-16T04:30:31;16.67;;;10.70;;
17091;SDS011;8661;45.700;4.880;2023-05-16T04:32:58;16.57;;;10.00;;
17091;SDS011;8661;45.700;4.880;2023-05-16T04:35:26;18.70;;;10.40;;
17091;SDS011;8661;45.700;4.880;2023-05-16T04:37:53;18.97;;;9.90;;
17091;SDS011;8661;45.700;4.880;2023-05-16T04:40:21;18.07;;;10.50;;
17091;SDS011;8661;45.700;4.880;2023-05-16T04:42:49;18.67;;;11.77;;
17091;SDS011;8661;45.700;4.880;2023-05-16T04:45:16;17.20;;;10.27;;
17091;SDS011;8661;45.700;4.880;2023-05-16T04:47:43;16.27;;;10.47;;
17091;SDS011;8661;45.700;4.880;2023-05-16T04:50:10;18.20;;;10.17;;
17091;SDS011;8661;45.700;4.880;2023-05-16T04:52:38;14.73;;;9.73;;
17091;SDS011;8661;45.700;4.880;2023-05-16T04:55:06;16.70;;;10.60;;
17091;SDS011;8661;45.700;4.880;2023-05-16T04:57:36;17.50;;;11.53;;
17091;SDS011;8661;45.700;4.880;2023-05-16T05:00:04;18.80;;;10.57;;
17091;SDS011;8661;45.700;4.880;2023-05-16T05:02:34;17.83;;;10.67;;
17091;SDS011;8661;45.700;4.880;2023-05-16T05:05:01;15.57;;;10.17;;
17091;SDS011;8661;45.700;4.880;2023-05-16T05:07:28;19.70;;;11.00;;
17091;SDS011;8661;45.700;4.880;2023-05-16T05:09:56;18.67;;;10.80;;
17091;SDS011;8661;45.700;4.880;2023-05-16T05:12:23;16.80;;;10.60;;
17091;SDS011;8661;45.700;4.880;2023-05-16T05:14:51;15.17;;;9.43;;
17091;SDS011;8661;45.700;4.880;2023-05-16T05:17:18;15.67;;;9.97;;
17091;SDS011;8661;45.700;4.880;2023-05-16T05:19:45;20.00;;;10.67;;
17091;SDS011;8661;45.700;4.880;2023-05-16T05:22:12;16.03;;;10.73;;
17091;SDS011;8661;45.700;4.880;2023-05-16T05:24:39;19.27;;;10.43;;
17091;SDS011;8661;45.700;4.880;2023-05-16T05:27:08;20.47;;;11.57;;
17091;SDS011;8661;45.700;4.880;2023-05-16T05:29:35;25.70;;;10.90;;
17091;SDS011;8661;45.700;4.880;2023-05-16T05:32:02;21.13;;;10.23;;
17091;SDS011;8661;45.700;4.880;2023-05-16T05:34:29;19.17;;;10.33;;
17091;SDS011;8661;45.700;4.880;2023-05-16T05:36:56;23.30;;;11.03;;
17091;SDS011;8661;45.700;4.880;2023-05-16T05:39:23;19.60;;;11.40;;
17091;SDS011;8661;45.700;4.880;2023-05-16T05:41:50;16.33;;;9.60;;
17091;SDS011;8661;45.700;4.880;2023-05-16T05:44:18;17.83;;;10.77;;
17091;SDS011;8661;45.700;4.880;2023-05-16T05:46:45;20.23;;;10.63;;
17091;SDS011;8661;45.700;4.880;2023-05-16T05:49:12;16.63;;;10.23;;
17091;SDS011;8661;45.700;4.880;2023-05-16T05:51:40;17.43;;;10.50;;
17091;SDS011;8661;45.700;4.880;2023-05-16T05:54:07;15.97;;;10.07;;
17091;SDS011;8661;45.700;4.880;2023-05-16T05:56:34;21.27;;;10.93;;
17091;SDS011;8661;45.700;4.880;2023-05-16T05:59:00;15.97;;;10.80;;
17091;SDS011;8661;45.700;4.880;2023-05-16T06:01:29;16.87;;;10.43;;
17091;SDS011;8661;45.700;4.880;2023-05-16T06:03:56;17.00;;;10.30;;
17091;SDS011;8661;45.700;4.880;2023-05-16T06:06:22;15.80;;;10.60;;
17091;SDS011;8661;45.700;4.880;2023-05-16T06:08:49;20.27;;;9.83;;
17091;SDS011;8661;45.700;4.880;2023-05-16T06:11:17;16.43;;;10.53;;
17091;SDS011;8661;45.700;4.880;2023-05-16T06:13:44;18.93;;;10.50;;
17091;SDS011;8661;45.700;4.880;2023-05-16T06:16:10;16.47;;;10.03;;
17091;SDS011;8661;45.700;4.880;2023-05-16T06:18:39;17.20;;;9.70;;
17091;SDS011;8661;45.700;4.880;2023-05-16T06:21:06;18.70;;;9.90;;
17091;SDS011;8661;45.700;4.880;2023-05-16T06:23:35;17.07;;;9.90;;
17091;SDS011;8661;45.700;4.880;2023-05-16T06:26:02;14.73;;;9.40;;
17091;SDS011;8661;45.700;4.880;2023-05-16T06:28:30;16.13;;;10.00;;
17091;SDS011;8661;45.700;4.880;2023-05-16T06:30:57;14.53;;;8.90;;
17091;SDS011;8661;45.700;4.880;2023-05-16T06:33:24;15.33;;;9.93;;
17091;SDS011;8661;45.700;4.880;2023-05-16T06:35:52;13.17;;;9.53;;
17091;SDS011;8661;45.700;4.880;2023-05-16T06:38:19;16.97;;;9.77;;
17091;SDS011;8661;45.700;4.880;2023-05-16T06:40:46;15.00;;;9.03;;
17091;SDS011;8661;45.700;4.880;2023-05-16T06:43:13;16.07;;;9.90;;
17091;SDS011;8661;45.700;4.880;2023-05-16T06:45:40;13.60;;;8.73;;
17091;SDS011;8661;45.700;4.880;2023-05-16T06:48:07;14.43;;;9.53;;
17091;SDS011;8661;45.700;4.880;2023-05-16T06:50:34;14.50;;;9.67;;
17091;SDS011;8661;45.700;4.880;2023-05-16T06:53:02;17.77;;;9.93;;
17091;SDS011;8661;45.700;4.880;2023-05-16T06:55:32;17.37;;;10.40;;
17091;SDS011;8661;45.700;4.880;2023-05-16T06:58:02;17.97;;;9.87;;
17091;SDS011;8661;45.700;4.880;2023-05-16T07:00:29;16.73;;;9.97;;
17091;SDS011;8661;45.700;4.880;2023-05-16T07:02:56;16.83;;;9.63;;
17091;SDS011;8661;45.700;4.880;2023-05-16T07:05:23;18.20;;;10.07;;
17091;SDS011;8661;45.700;4.880;2023-05-16T07:07:49;19.57;;;9.90;;
17091;SDS011;8661;45.700;4.880;2023-05-16T07:10:18;17.20;;;10.37;;
17091;SDS011;8661;45.700;4.880;2023-05-16T07:12:45;18.77;;;10.30;;
17091;SDS011;8661;45.700;4.880;2023-05-16T07:15:12;18.37;;;10.03;;
17091;SDS011;8661;45.700;4.880;2023-05-16T07:17:39;22.87;;;11.27;;
17091;SDS011;8661;45.700;4.880;2023-05-16T07:20:07;20.07;;;10.73;;
17091;SDS011;8661;45.700;4.880;2023-05-16T07:22:37;21.90;;;9.97;;
17091;SDS011;8661;45.700;4.880;2023-05-16T07:25:05;23.07;;;10.30;;
17091;SDS011;8661;45.700;4.880;2023-05-16T07:27:37;34.87;;;12.43;;
17091;SDS011;8661;45.700;4.880;2023-05-16T07:30:06;18.83;;;10.67;;
17091;SDS011;8661;45.700;4.880;2023-05-16T07:32:34;42.57;;;13.33;;
17091;SDS011;8661;45.700;4.880;2023-05-16T07:35:02;17.77;;;9.67;;
17091;SDS011;8661;45.700;4.880;2023-05-16T07:37:29;34.80;;;13.97;;
17091;SDS011;8661;45.700;4.880;2023-05-16T07:39:56;15.70;;;9.33;;
17091;SDS011;8661;45.700;4.880;2023-05-16T07:42:23;18.13;;;10.10;;
17091;SDS011;8661;45.700;4.880;2023-05-16T07:44:51;17.10;;;8.90;;
17091;SDS011;8661;45.700;4.880;2023-05-16T07:47:18;17.40;;;8.70;;
17091;SDS011;8661;45.700;4.880;2023-05-16T07:49:45;17.53;;;9.27;;
17091;SDS011;8661;45.700;4.880;2023-05-16T07:52:12;16.33;;;9.70;;
17091;SDS011;8661;45.700;4.880;2023-05-16T07:54:39;14.53;;;9.17;;
17091;SDS011;8661;45.700;4.880;2023-05-16T07:57:06;16.70;;;9.27;;
17091;SDS011;8661;45.700;4.880;2023-05-16T07:59:33;14.70;;;9.50;;
17091;SDS011;8661;45.700;4.880;2023-05-16T08:02:01;15.03;;;8.97;;
17091;SDS011;8661;45.700;4.880;2023-05-16T08:04:28;16.80;;;9.97;;
17091;SDS011;8661;45.700;4.880;2023-05-16T08:06:55;18.47;;;9.57;;
17091;SDS011;8661;45.700;4.880;2023-05-16T08:09:22;14.13;;;9.17;;
17091;SDS011;8661;45.700;4.880;2023-05-16T08:11:49;18.33;;;8.70;;
17091;SDS011;8661;45.700;4.880;2023-05-16T08:14:16;16.50;;;9.23;;
17091;SDS011;8661;45.700;4.880;2023-05-16T08:16:42;16.53;;;8.67;;
17091;SDS011;8661;45.700;4.880;2023-05-16T08:19:11;13.90;;;9.03;;
17091;SDS011;8661;45.700;4.880;2023-05-16T08:21:38;14.73;;;8.17;;
17091;SDS011;8661;45.700;4.880;2023-05-16T08:24:05;19.20;;;9.27;;
17091;SDS011;8661;45.700;4.880;2023-05-16T08:26:35;17.13;;;9.03;;
17091;SDS011;8661;45.700;4.880;2023-05-16T08:29:02;15.33;;;8.07;;
17091;SDS011;8661;45.700;4.880;2023-05-16T08:31:32;12.53;;;8.00;;
17091;SDS011;8661;45.700;4.880;2023-05-16T08:33:59;14.20;;;8.73;;
17091;SDS011;8661;45.700;4.880;2023-05-16T08:36:28;14.63;;;8.20;;
17091;SDS011;8661;45.700;4.880;2023-05-16T08:38:55;17.40;;;8.97;;
17091;SDS011;8661;45.700;4.880;2023-05-16T08:41:22;12.70;;;7.43;;
17091;SDS011;8661;45.700;4.880;2023-05-16T08:43:50;18.07;;;8.00;;
17091;SDS011;8661;45.700;4.880;2023-05-16T08:46:17;15.77;;;7.90;;
17091;SDS011;8661;45.700;4.880;2023-05-16T08:48:48;12.60;;;7.10;;
17091;SDS011;8661;45.700;4.880;2023-05-16T08:51:18;14.77;;;8.13;;
17091;SDS011;8661;45.700;4.880;2023-05-16T08:53:49;11.83;;;7.00;;
17091;SDS011;8661;45.700;4.880;2023-05-16T08:56:21;12.00;;;7.07;;
17091;SDS011;8661;45.700;4.880;2023-05-16T08:58:49;17.47;;;7.53;;
17091;SDS011;8661;45.700;4.880;2023-05-16T09:01:19;16.67;;;8.03;;
17091;SDS011;8661;45.700;4.880;2023-05-16T09:03:47;14.20;;;7.50;;
17091;SDS011;8661;45.700;4.880;2023-05-16T09:06:15;15.13;;;7.93;;
17091;SDS011;8661;45.700;4.880;2023-05-16T09:08:42;14.40;;;7.90;;
17091;SDS011;8661;45.700;4.880;2023-05-16T09:11:11;18.53;;;10.00;;
17091;SDS011;8661;45.700;4.880;2023-05-16T09:13:38;17.10;;;8.13;;
17091;SDS011;8661;45.700;4.880;2023-05-16T09:16:08;13.93;;;7.60;;
17091;SDS011;8661;45.700;4.880;2023-05-16T09:18:36;25.67;;;8.67;;
17091;SDS011;8661;45.700;4.880;2023-05-16T09:21:03;15.53;;;7.47;;
17091;SDS011;8661;45.700;4.880;2023-05-16T09:23:31;10.27;;;6.93;;
17091;SDS011;8661;45.700;4.880;2023-05-16T09:25:58;11.57;;;6.87;;
17091;SDS011;8661;45.700;4.880;2023-05-16T09:28:27;11.50;;;6.80;;
17091;SDS011;8661;45.700;4.880;2023-05-16T09:30:54;12.77;;;6.70;;
17091;SDS011;8661;45.700;4.880;2023-05-16T09:33:23;13.07;;;6.33;;
17091;SDS011;8661;45.700;4.880;2023-05-16T09:35:55;10.13;;;6.37;;
17091;SDS011;8661;45.700;4.880;2023-05-16T09:38:23;13.40;;;7.00;;
17091;SDS011;8661;45.700;4.880;2023-05-16T09:40:51;10.20;;;6.63;;
17091;SDS011;8661;45.700;4.880;2023-05-16T09:43:21;12.70;;;6.33;;
17091;SDS011;8661;45.700;4.880;2023-05-16T09:45:51;14.60;;;6.90;;
17091;SDS011;8661;45.700;4.880;2023-05-16T09:48:19;13.03;;;7.03;;
17091;SDS011;8661;45.700;4.880;2023-05-16T09:50:48;11.40;;;7.00;;
17091;SDS011;8661;45.700;4.880;2023-05-16T09:53:23;12.53;;;6.80;;
17091;SDS011;8661;45.700;4.880;2023-05-16T09:55:58;10.20;;;6.53;;
17091;SDS011;8661;45.700;4.880;2023-05-16T09:58:27;10.23;;;6.30;;
17091;SDS011;8661;45.700;4.880;2023-05-16T10:00:56;13.33;;;6.40;;
17091;SDS011;8661;45.700;4.880;2023-05-16T10:03:24;10.83;;;6.27;;
17091;SDS011;8661;45.700;4.880;2023-05-16T10:05:51;9.90;;;6.60;;
17091;SDS011;8661;45.700;4.880;2023-05-16T10:08:19;13.07;;;6.53;;
17091;SDS011;8661;45.700;4.880;2023-05-16T10:10:48;8.57;;;6.30;;
17091;SDS011;8661;45.700;4.880;2023-05-16T10:13:19;9.17;;;6.27;;
17091;SDS011;8661;45.700;4.880;2023-05-16T10:15:47;11.23;;;6.30;;
17091;SDS011;8661;45.700;4.880;2023-05-16T10:18:17;12.37;;;6.60;;
17091;SDS011;8661;45.700;4.880;2023-05-16T10:20:46;9.57;;;5.90;;
17091;SDS011;8661;45.700;4.880;2023-05-16T10:23:17;10.37;;;5.97;;
17091;SDS011;8661;45.700;4.880;2023-05-16T10:25:45;9.33;;;5.43;;
17091;SDS011;8661;45.700;4.880;2023-05-16T10:28:13;8.17;;;5.03;;
17091;SDS011;8661;45.700;4.880;2023-05-16T10:30:42;8.60;;;5.60;;
17091;SDS011;8661;45.700;4.880;2023-05-16T10:33:10;9.30;;;6.13;;
17091;SDS011;8661;45.700;4.880;2023-05-16T10:35:39;9.40;;;5.47;;
17091;SDS011;8661;45.700;4.880;2023-05-16T10:38:08;8.87;;;5.87;;
17091;SDS011;8661;45.700;4.880;2023-05-16T10:40:38;10.23;;;5.87;;
17091;SDS011;8661;45.700;4.880;2023-05-16T10:43:06;14.50;;;7.37;;
17091;SDS011;8661;45.700;4.880;2023-05-16T10:45:33;13.77;;;6.63;;
17091;SDS011;8661;45.700;4.880;2023-05-16T10:48:01;8.23;;;5.10;;
17091;SDS011;8661;45.700;4.880;2023-05-16T10:50:34;9.73;;;4.90;;
17091;SDS011;8661;45.700;4.880;2023-05-16T10:53:13;6.63;;;4.67;;
17091;SDS011;8661;45.700;4.880;2023-05-16T10:55:48;10.00;;;4.97;;
17091;SDS011;8661;45.700;4.880;2023-05-16T10:58:22;6.33;;;4.00;;
17091;SDS011;8661;45.700;4.880;2023-05-16T11:04:02;13.03;;;4.47;;
17091;SDS011;8661;45.700;4.880;2023-05-16T11:06:31;6.73;;;3.97;;
17091;SDS011;8661;45.700;4.880;2023-05-16T11:09:07;6.70;;;4.03;;
17091;SDS011;8661;45.700;4.880;2023-05-16T11:11:46;7.50;;;4.40;;
17091;SDS011;8661;45.700;4.880;2023-05-16T11:14:19;6.77;;;4.37;;
17091;SDS011;8661;45.700;4.880;2023-05-16T11:16:48;9.97;;;4.30;;
17091;SDS011;8661;45.700;4.880;2023-05-16T11:19:27;7.83;;;3.97;;
17091;SDS011;8661;45.700;4.880;2023-05-16T11:22:05;7.10;;;4.17;;
17091;SDS011;8661;45.700;4.880;2023-05-16T11:24:47;35.90;;;7.13;;
17091;SDS011;8661;45.700;4.880;2023-05-16T11:27:20;6.27;;;3.37;;
17091;SDS011;8661;45.700;4.880;2023-05-16T11:29:49;5.53;;;3.47;;
17091;SDS011;8661;45.700;4.880;2023-05-16T11:32:20;6.83;;;3.30;;
17091;SDS011;8661;45.700;4.880;2023-05-16T11:34:48;7.73;;;3.70;;
17091;SDS011;8661;45.700;4.880;2023-05-16T11:37:15;5.37;;;3.63;;
17091;SDS011;8661;45.700;4.880;2023-05-16T11:39:45;9.23;;;3.47;;
17091;SDS011;8661;45.700;4.880;2023-05-16T11:42:12;7.23;;;3.73;;
17091;SDS011;8661;45.700;4.880;2023-05-16T11:44:39;6.90;;;3.10;;
17091;SDS011;8661;45.700;4.880;2023-05-16T11:47:06;5.10;;;2.80;;
17091;SDS011;8661;45.700;4.880;2023-05-16T11:49:33;7.80;;;3.43;;
17091;SDS011;8661;45.700;4.880;2023-05-16T11:52:00;5.37;;;3.10;;
17091;SDS011;8661;45.700;4.880;2023-05-16T11:54:27;5.27;;;3.07;;
17091;SDS011;8661;45.700;4.880;2023-05-16T11:56:56;5.00;;;3.27;;
17091;SDS011;8661;45.700;4.880;2023-05-16T11:59:23;7.17;;;2.80;;
17091;SDS011;8661;45.700;4.880;2023-05-16T12:01:50;5.57;;;3.23;;
17091;SDS011;8661;45.700;4.880;2023-05-16T12:04:17;5.70;;;3.20;;
17091;SDS011;8661;45.700;4.880;2023-05-16T12:06:44;6.07;;;3.20;;
17091;SDS011;8661;45.700;4.880;2023-05-16T12:09:25;8.63;;;3.20;;
17091;SDS011;8661;45.700;4.880;2023-05-16T12:11:52;5.33;;;2.90;;
17091;SDS011;8661;45.700;4.880;2023-05-16T12:14:20;4.37;;;2.80;;
17091;SDS011;8661;45.700;4.880;2023-05-16T12:16:48;6.50;;;3.20;;
17091;SDS011;8661;45.700;4.880;2023-05-16T12:19:17;12.37;;;5.27;;
17091;SDS011;8661;45.700;4.880;2023-05-16T12:21:45;7.53;;;3.20;;
17091;SDS011;8661;45.700;4.880;2023-05-16T12:24:12;36.13;;;5.97;;
17091;SDS011;8661;45.700;4.880;2023-05-16T12:26:39;18.60;;;4.23;;
17091;SDS011;8661;45.700;4.880;2023-05-16T12:29:07;4.50;;;2.50;;
17091;SDS011;8661;45.700;4.880;2023-05-16T12:31:37;6.83;;;2.80;;
17091;SDS011;8661;45.700;4.880;2023-05-16T12:34:13;7.40;;;3.17;;
17091;SDS011;8661;45.700;4.880;2023-05-16T12:36:41;10.50;;;3.27;;
17091;SDS011;8661;45.700;4.880;2023-05-16T12:39:10;38.17;;;5.97;;
17091;SDS011;8661;45.700;4.880;2023-05-16T12:41:39;5.60;;;2.57;;
17091;SDS011;8661;45.700;4.880;2023-05-16T12:44:11;13.33;;;3.93;;
17091;SDS011;8661;45.700;4.880;2023-05-16T12:46:42;10.63;;;3.23;;
17091;SDS011;8661;45.700;4.880;2023-05-16T12:49:10;10.93;;;3.27;;
17091;SDS011;8661;45.700;4.880;2023-05-16T12:51:38;6.10;;;2.87;;
17091;SDS011;8661;45.700;4.880;2023-05-16T12:54:09;6.37;;;2.63;;
17091;SDS011;8661;45.700;4.880;2023-05-16T12:56:37;6.30;;;2.67;;
17091;SDS011;8661;45.700;4.880;2023-05-16T12:59:04;34.97;;;5.77;;
17091;SDS011;8661;45.700;4.880;2023-05-16T13:01:31;9.87;;;2.90;;
17091;SDS011;8661;45.700;4.880;2023-05-16T13:04:00;4.30;;;2.80;;
17091;SDS011;8661;45.700;4.880;2023-05-16T13:06:28;4.13;;;2.60;;
17091;SDS011;8661;45.700;4.880;2023-05-16T13:08:55;4.73;;;2.30;;
17091;SDS011;8661;45.700;4.880;2023-05-16T13:11:22;6.80;;;2.70;;
17091;SDS011;8661;45.700;4.880;2023-05-16T13:13:50;6.27;;;2.73;;
17091;SDS011;8661;45.700;4.880;2023-05-16T13:16:17;6.67;;;2.50;;
17091;SDS011;8661;45.700;4.880;2023-05-16T13:18:44;8.03;;;2.40;;
17091;SDS011;8661;45.700;4.880;2023-05-16T13:21:12;10.70;;;2.30;;
17091;SDS011;8661;45.700;4.880;2023-05-16T13:23:39;5.03;;;2.07;;
17091;SDS011;8661;45.700;4.880;2023-05-16T13:26:06;3.93;;;2.50;;
17091;SDS011;8661;45.700;4.880;2023-05-16T13:28:33;3.70;;;2.23;;
17091;SDS011;8661;45.700;4.880;2023-05-16T13:31:01;5.17;;;2.33;;
17091;SDS011;8661;45.700;4.880;2023-05-16T13:33:28;5.83;;;2.50;;
17091;SDS011;8661;45.700;4.880;2023-05-16T13:35:55;4.73;;;2.50;;
17091;SDS011;8661;45.700;4.880;2023-05-16T13:38:23;7.27;;;2.30;;
17091;SDS011;8661;45.700;4.880;2023-05-16T13:40:50;6.37;;;2.77;;
17091;SDS011;8661;45.700;4.880;2023-05-16T13:43:17;8.53;;;2.90;;
17091;SDS011;8661;45.700;4.880;2023-05-16T13:45:44;7.87;;;3.00;;
17091;SDS011;8661;45.700;4.880;2023-05-16T13:48:11;9.43;;;3.30;;
17091;SDS011;8661;45.700;4.880;2023-05-16T13:50:38;5.73;;;3.33;;
17091;SDS011;8661;45.700;4.880;2023-05-16T13:53:05;8.70;;;3.37;;
17091;SDS011;8661;45.700;4.880;2023-05-16T13:55:35;8.87;;;3.07;;
17091;SDS011;8661;45.700;4.880;2023-05-16T13:58:02;5.70;;;3.00;;
17091;SDS011;8661;45.700;4.880;2023-05-16T14:00:29;7.67;;;3.50;;
17091;SDS011;8661;45.700;4.880;2023-05-16T14:02:56;12.33;;;3.50;;
17091;SDS011;8661;45.700;4.880;2023-05-16T14:05:22;5.47;;;3.20;;
17091;SDS011;8661;45.700;4.880;2023-05-16T14:07:50;9.33;;;2.80;;
17091;SDS011;8661;45.700;4.880;2023-05-16T14:10:17;6.90;;;2.77;;
17091;SDS011;8661;45.700;4.880;2023-05-16T14:12:45;5.47;;;2.87;;
17091;SDS011;8661;45.700;4.880;2023-05-16T14:15:13;4.53;;;2.40;;
17091;SDS011;8661;45.700;4.880;2023-05-16T14:17:39;4.27;;;2.27;;
17091;SDS011;8661;45.700;4.880;2023-05-16T14:20:06;7.63;;;3.23;;
17091;SDS011;8661;45.700;4.880;2023-05-16T14:22:34;9.20;;;3.07;;
17091;SDS011;8661;45.700;4.880;2023-05-16T14:25:02;13.63;;;3.53;;
17091;SDS011;8661;45.700;4.880;2023-05-16T14:27:33;7.90;;;2.87;;
17091;SDS011;8661;45.700;4.880;2023-05-16T14:30:01;5.60;;;2.53;;
17091;SDS011;8661;45.700;4.880;2023-05-16T14:32:30;8.27;;;3.13;;
17091;SDS011;8661;45.700;4.880;2023-05-16T14:34:57;7.33;;;2.97;;
17091;SDS011;8661;45.700;4.880;2023-05-16T14:37:24;12.23;;;3.17;;
17091;SDS011;8661;45.700;4.880;2023-05-16T14:39:51;4.90;;;2.80;;
17091;SDS011;8661;45.700;4.880;2023-05-16T14:42:19;6.43;;;2.40;;
17091;SDS011;8661;45.700;4.880;2023-05-16T14:44:46;10.57;;;3.23;;
17091;SDS011;8661;45.700;4.880;2023-05-16T14:47:14;4.90;;;2.50;;
17091;SDS011;8661;45.700;4.880;2023-05-16T14:49:41;5.37;;;2.40;;
17091;SDS011;8661;45.700;4.880;2023-05-16T14:52:08;6.00;;;1.90;;
17091;SDS011;8661;45.700;4.880;2023-05-16T14:54:34;4.33;;;2.10;;
17091;SDS011;8661;45.700;4.880;2023-05-16T14:57:01;5.33;;;2.30;;
17091;SDS011;8661;45.700;4.880;2023-05-16T14:59:30;6.67;;;2.20;;
17091;SDS011;8661;45.700;4.880;2023-05-16T15:01:57;5.93;;;2.70;;
17091;SDS011;8661;45.700;4.880;2023-05-16T15:04:26;4.93;;;2.93;;
17091;SDS011;8661;45.700;4.880;2023-05-16T15:06:53;6.13;;;2.83;;
17091;SDS011;8661;45.700;4.880;2023-05-16T15:09:20;6.53;;;2.30;;
17091;SDS011;8661;45.700;4.880;2023-05-16T15:11:47;4.77;;;1.93;;
17091;SDS011;8661;45.700;4.880;2023-05-16T15:14:13;4.97;;;2.10;;
17091;SDS011;8661;45.700;4.880;2023-05-16T15:16:40;8.53;;;2.37;;
17091;SDS011;8661;45.700;4.880;2023-05-16T15:19:07;3.90;;;1.93;;
17091;SDS011;8661;45.700;4.880;2023-05-16T15:21:36;5.33;;;1.97;;
17091;SDS011;8661;45.700;4.880;2023-05-16T15:24:06;6.17;;;2.00;;
17091;SDS011;8661;45.700;4.880;2023-05-16T15:26:37;4.37;;;1.87;;
17091;SDS011;8661;45.700;4.880;2023-05-16T15:29:04;8.63;;;1.93;;
17091;SDS011;8661;45.700;4.880;2023-05-16T15:31:31;4.00;;;1.90;;
17091;SDS011;8661;45.700;4.880;2023-05-16T15:33:58;8.37;;;2.30;;
17091;SDS011;8661;45.700;4.880;2023-05-16T15:36:25;3.80;;;1.90;;
17091;SDS011;8661;45.700;4.880;2023-05-16T15:38:54;3.70;;;1.70;;
17091;SDS011;8661;45.700;4.880;2023-05-16T15:41:21;5.70;;;1.93;;
17091;SDS011;8661;45.700;4.880;2023-05-16T15:43:48;3.60;;;1.73;;
17091;SDS011;8661;45.700;4.880;2023-05-16T15:46:14;4.23;;;1.53;;
17091;SDS011;8661;45.700;4.880;2023-05-16T15:48:41;6.70;;;1.97;;
17091;SDS011;8661;45.700;4.880;2023-05-16T15:51:09;3.83;;;1.97;;
17091;SDS011;8661;45.700;4.880;2023-05-16T15:53:37;4.63;;;1.97;;
17091;SDS011;8661;45.700;4.880;2023-05-16T15:56:06;2.13;;;1.60;;
17091;SDS011;8661;45.700;4.880;2023-05-16T15:58:34;3.97;;;2.07;;
17091;SDS011;8661;45.700;4.880;2023-05-16T16:01:01;4.47;;;1.50;;
17091;SDS011;8661;45.700;4.880;2023-05-16T16:03:30;2.90;;;1.87;;
17091;SDS011;8661;45.700;4.880;2023-05-16T16:05:57;3.63;;;1.87;;
17091;SDS011;8661;45.700;4.880;2023-05-16T16:08:24;2.73;;;2.07;;
17091;SDS011;8661;45.700;4.880;2023-05-16T16:10:51;5.40;;;2.30;;
17091;SDS011;8661;45.700;4.880;2023-05-16T16:13:19;4.13;;;1.93;;
17091;SDS011;8661;45.700;4.880;2023-05-16T16:15:48;3.50;;;1.70;;
17091;SDS011;8661;45.700;4.880;2023-05-16T16:18:15;3.67;;;1.70;;
17091;SDS011;8661;45.700;4.880;2023-05-16T16:20:41;3.20;;;1.83;;
17091;SDS011;8661;45.700;4.880;2023-05-16T16:23:08;9.70;;;1.70;;
17091;SDS011;8661;45.700;4.880;2023-05-16T16:25:35;2.70;;;1.30;;
17091;SDS011;8661;45.700;4.880;2023-05-16T16:28:02;3.83;;;1.47;;
17091;SDS011;8661;45.700;4.880;2023-05-16T16:30:31;5.20;;;1.70;;
17091;SDS011;8661;45.700;4.880;2023-05-16T16:32:58;3.60;;;1.83;;
17091;SDS011;8661;45.700;4.880;2023-05-16T16:35:25;5.60;;;1.87;;
17091;SDS011;8661;45.700;4.880;2023-05-16T16:37:52;3.97;;;1.60;;
17091;SDS011;8661;45.700;4.880;2023-05-16T16:40:20;2.73;;;1.60;;
17091;SDS011;8661;45.700;4.880;2023-05-16T16:42:47;5.10;;;1.70;;
17091;SDS011;8661;45.700;4.880;2023-05-16T16:45:13;3.80;;;1.50;;
17091;SDS011;8661;45.700;4.880;2023-05-16T16:47:42;4.23;;;1.93;;
17091;SDS011;8661;45.700;4.880;2023-05-16T16:50:09;2.63;;;1.47;;
17091;SDS011;8661;45.700;4.880;2023-05-16T16:52:36;5.63;;;1.43;;
17091;SDS011;8661;45.700;4.880;2023-05-16T16:55:04;3.53;;;1.90;;
17091;SDS011;8661;45.700;4.880;2023-05-16T16:57:31;3.50;;;1.80;;
17091;SDS011;8661;45.700;4.880;2023-05-16T16:59:58;4.47;;;1.83;;
17091;SDS011;8661;45.700;4.880;2023-05-16T17:02:25;4.03;;;1.57;;
17091;SDS011;8661;45.700;4.880;2023-05-16T17:04:54;3.80;;;1.70;;
17091;SDS011;8661;45.700;4.880;2023-05-16T17:07:20;2.10;;;1.57;;
17091;SDS011;8661;45.700;4.880;2023-05-16T17:09:47;4.10;;;1.83;;
17091;SDS011;8661;45.700;4.880;2023-05-16T17:12:14;4.40;;;1.37;;
17091;SDS011;8661;45.700;4.880;2023-05-16T17:14:44;4.90;;;1.60;;